Time;durP1;ratioP1;P1;durP2;ratioP2;P2;SDS_P1;SDS_P2;PMS_P1;PMS_P2;Temp;Humidity;BMP_temperature;BMP_pressure;BME280_temperature;BME280_humidity;BME280_pressure;Samples;Min_cycle;Max_cycle;Signal;HPM_P1;HPM_P2
2022/05/05 00:01:03;;;;;;;13.07;7.60;;;;;;;;;;5088057;28;20089;-76
2022/05/05 00:03:29;;;;;;;17.63;8.90;;;;;;;;;;5087832;28;20122;-76
2022/05/05 00:05:55;;;;;;;15.73;9.43;;;;;;;;;;5088031;28;20065;-76
2022/05/05 00:08:21;;;;;;;16.55;9.20;;;;;;;;;;5088023;28;20075;-76
2022/05/05 00:16:17;;;;;;;19.70;8.98;;;;;;;;;;5072724;28;20051;-76
2022/05/05 00:18:44;;;;;;;15.40;8.82;;;;;;;;;;5088070;28;20394;-76
2022/05/05 00:21:10;;;;;;;12.73;7.95;;;;;;;;;;5067411;28;20036;-76
2022/05/05 00:23:36;;;;;;;14.45;8.90;;;;;;;;;;5064385;28;20036;-76
2022/05/05 00:26:02;;;;;;;13.90;8.50;;;;;;;;;;5087610;28;20036;-76
2022/05/05 00:28:29;;;;;;;12.02;7.68;;;;;;;;;;5088016;28;20307;-76
2022/05/05 00:30:55;;;;;;;12.18;8.25;;;;;;;;;;5087951;28;20040;-76
2022/05/05 00:33:21;;;;;;;13.32;8.20;;;;;;;;;;5088119;28;20102;-76
2022/05/05 00:35:47;;;;;;;14.57;8.13;;;;;;;;;;5090764;28;20071;-76
2022/05/05 00:38:13;;;;;;;12.93;7.80;;;;;;;;;;5091075;28;20085;-76
2022/05/05 00:40:42;;;;;;;16.83;8.77;;;;;;;;;;5090972;28;20593;-76
2022/05/05 00:43:08;;;;;;;13.38;7.60;;;;;;;;;;5090669;28;20287;-76
2022/05/05 00:45:34;;;;;;;14.68;7.50;;;;;;;;;;5091030;28;20031;-76
2022/05/05 00:48:05;;;;;;;13.93;7.82;;;;;;;;;;5090745;28;20044;-76
2022/05/05 00:50:32;;;;;;;15.98;7.72;;;;;;;;;;5090719;28;20036;-76
2022/05/05 00:52:59;;;;;;;13.20;8.32;;;;;;;;;;5091197;28;20422;-76
2022/05/05 00:55:25;;;;;;;13.75;7.22;;;;;;;;;;5090716;28;20048;-76
2022/05/05 00:57:51;;;;;;;15.25;7.47;;;;;;;;;;5090335;28;20044;-76
2022/05/05 01:00:18;;;;;;;13.43;7.75;;;;;;;;;;5090632;28;20134;-76
2022/05/05 01:02:44;;;;;;;13.25;7.88;;;;;;;;;;5090211;28;20078;-76
2022/05/05 01:05:10;;;;;;;11.20;7.28;;;;;;;;;;5091130;28;20038;-76
2022/05/05 01:07:38;;;;;;;15.05;7.38;;;;;;;;;;5090501;28;20290;-76
2022/05/05 01:10:04;;;;;;;12.05;7.63;;;;;;;;;;5071671;28;20480;-76
2022/05/05 01:12:31;;;;;;;13.02;7.20;;;;;;;;;;5089517;28;20047;-76
2022/05/05 01:15:01;;;;;;;14.63;7.60;;;;;;;;;;5090155;28;20039;-76
2022/05/05 01:17:27;;;;;;;13.73;7.93;;;;;;;;;;5091544;28;20042;-76
2022/05/05 01:19:53;;;;;;;16.35;8.35;;;;;;;;;;5090839;28;20059;-76
2022/05/05 01:22:20;;;;;;;15.88;8.80;;;;;;;;;;5074374;28;20036;-76
2022/05/05 01:30:16;;;;;;;17.48;8.15;;;;;;;;;;5090814;28;20514;-76
2022/05/05 01:32:42;;;;;;;13.55;7.63;;;;;;;;;;5090807;28;20386;-76
2022/05/05 01:35:08;;;;;;;14.60;8.00;;;;;;;;;;5090473;28;20477;-76
2022/05/05 01:37:34;;;;;;;12.95;7.78;;;;;;;;;;5094141;28;20040;-76
2022/05/05 01:40:01;;;;;;;12.07;7.38;;;;;;;;;;5094226;28;20435;-76
2022/05/05 01:42:27;;;;;;;11.93;7.18;;;;;;;;;;5094490;28;20032;-76
2022/05/05 01:44:53;;;;;;;10.00;6.82;;;;;;;;;;5093936;28;20278;-76
2022/05/05 01:47:19;;;;;;;13.20;7.85;;;;;;;;;;5077619;28;20479;-76
2022/05/05 01:49:46;;;;;;;14.05;7.97;;;;;;;;;;5094034;28;20031;-76
2022/05/05 01:52:12;;;;;;;14.15;7.63;;;;;;;;;;5093689;28;20039;-76
2022/05/05 01:54:38;;;;;;;12.20;7.97;;;;;;;;;;5093952;28;20410;-76
2022/05/05 01:57:06;;;;;;;17.25;7.15;;;;;;;;;;5093858;28;20379;-76
2022/05/05 01:59:33;;;;;;;12.10;6.80;;;;;;;;;;5094175;28;20043;-76
2022/05/05 02:02:08;;;;;;;12.85;7.43;;;;;;;;;;5093433;28;20040;-76
2022/05/05 02:04:34;;;;;;;10.02;6.82;;;;;;;;;;5093637;28;20040;-76
2022/05/05 02:07:00;;;;;;;13.00;7.72;;;;;;;;;;5093562;28;20074;-76
2022/05/05 02:09:26;;;;;;;14.35;7.93;;;;;;;;;;5093637;28;20039;-76
2022/05/05 02:11:53;;;;;;;13.77;8.07;;;;;;;;;;5076964;28;20061;-76
2022/05/05 02:14:23;;;;;;;12.77;7.70;;;;;;;;;;5093690;28;20031;-76
2022/05/05 02:16:50;;;;;;;13.40;7.80;;;;;;;;;;5093082;28;20051;-76
2022/05/05 02:19:16;;;;;;;14.35;8.05;;;;;;;;;;5093638;28;20039;-76
2022/05/05 02:21:42;;;;;;;14.00;8.15;;;;;;;;;;5093050;28;20067;-77
2022/05/05 02:24:08;;;;;;;12.35;7.88;;;;;;;;;;5093279;28;20078;-76
2022/05/05 02:26:34;;;;;;;15.70;8.50;;;;;;;;;;5093280;28;20123;-76
2022/05/05 02:29:02;;;;;;;11.25;8.05;;;;;;;;;;5093223;28;20039;-76
2022/05/05 02:31:28;;;;;;;14.55;8.52;;;;;;;;;;5093396;28;20044;-76
2022/05/05 02:33:54;;;;;;;12.52;8.38;;;;;;;;;;5093088;28;20047;-76
2022/05/05 02:39:05;;;;;;;;;;;;;;;;;;5093462;28;20058;-76
2022/05/05 02:41:31;;;;;;;14.38;7.85;;;;;;;;;;5092870;28;19916;-76
2022/05/05 02:43:57;;;;;;;13.65;9.27;;;;;;;;;;5092569;28;20043;-76
2022/05/05 02:46:24;;;;;;;16.05;10.07;;;;;;;;;;5094273;28;20620;-76
2022/05/05 02:48:50;;;;;;;15.27;8.65;;;;;;;;;;5094921;28;20035;-76
2022/05/05 02:51:17;;;;;;;12.48;8.13;;;;;;;;;;5094885;28;20032;-77
2022/05/05 02:56:28;;;;;;;;;;;;;;;;;;5095907;28;20437;-76
2022/05/05 02:58:54;;;;;;;16.33;8.88;;;;;;;;;;5095400;28;19915;-76
2022/05/05 03:01:20;;;;;;;15.77;8.63;;;;;;;;;;5078582;28;20046;-76
2022/05/05 03:03:46;;;;;;;14.48;8.63;;;;;;;;;;5095162;28;20543;-76
2022/05/05 03:06:13;;;;;;;15.68;8.50;;;;;;;;;;5094867;28;20027;-76
2022/05/05 03:08:39;;;;;;;16.30;8.63;;;;;;;;;;5088731;28;20040;-77
2022/05/05 03:11:05;;;;;;;15.00;8.65;;;;;;;;;;5058677;28;20051;-77
2022/05/05 03:13:31;;;;;;;14.50;8.63;;;;;;;;;;5081882;28;20082;-77
2022/05/05 03:15:58;;;;;;;14.18;8.70;;;;;;;;;;5094895;28;20054;-77
2022/05/05 03:18:24;;;;;;;15.95;9.18;;;;;;;;;;5094773;28;20036;-77
2022/05/05 03:20:50;;;;;;;16.10;9.10;;;;;;;;;;5094574;28;20126;-77
2022/05/05 03:23:16;;;;;;;14.68;9.57;;;;;;;;;;5094838;28;20119;-77
2022/05/05 03:25:42;;;;;;;15.57;9.30;;;;;;;;;;5094386;28;20118;-77
2022/05/05 03:28:08;;;;;;;13.57;9.20;;;;;;;;;;5094996;28;20465;-77
2022/05/05 03:30:35;;;;;;;13.60;8.65;;;;;;;;;;5094956;28;20048;-77
2022/05/05 03:33:01;;;;;;;14.73;8.93;;;;;;;;;;5094640;28;20082;-77
2022/05/05 03:35:27;;;;;;;14.13;9.10;;;;;;;;;;5094247;28;20396;-77
2022/05/05 03:37:53;;;;;;;14.40;8.80;;;;;;;;;;5094170;28;20122;-77
2022/05/05 03:40:19;;;;;;;15.60;9.20;;;;;;;;;;5084009;28;20039;-77
2022/05/05 03:42:46;;;;;;;18.55;9.93;;;;;;;;;;5077235;28;20439;-77
2022/05/05 03:45:12;;;;;;;16.75;9.95;;;;;;;;;;5094272;28;20074;-77
2022/05/05 03:47:38;;;;;;;14.57;9.65;;;;;;;;;;5094379;28;20084;-77
2022/05/05 03:50:05;;;;;;;14.45;9.48;;;;;;;;;;5094393;28;20081;-77
2022/05/05 03:52:31;;;;;;;14.20;8.88;;;;;;;;;;5093760;28;20039;-76
2022/05/05 03:54:57;;;;;;;16.40;9.18;;;;;;;;;;5094384;28;20039;-76
2022/05/05 03:57:23;;;;;;;14.45;8.57;;;;;;;;;;5094073;28;20039;-76
2022/05/05 03:59:49;;;;;;;14.25;8.85;;;;;;;;;;5093197;28;20051;-76
2022/05/05 04:02:15;;;;;;;14.32;8.55;;;;;;;;;;5094340;28;20032;-76
2022/05/05 04:04:42;;;;;;;14.90;8.52;;;;;;;;;;5094027;28;20055;-76
2022/05/05 04:07:08;;;;;;;16.23;9.88;;;;;;;;;;5094179;28;20478;-76
2022/05/05 04:09:34;;;;;;;14.95;10.30;;;;;;;;;;5093836;28;20123;-76
2022/05/05 04:12:00;;;;;;;15.27;9.65;;;;;;;;;;5093799;28;20071;-76
2022/05/05 04:14:26;;;;;;;17.30;9.82;;;;;;;;;;5093721;28;20044;-77
2022/05/05 04:16:52;;;;;;;15.55;10.32;;;;;;;;;;5093769;28;20078;-77
2022/05/05 04:19:19;;;;;;;17.63;9.60;;;;;;;;;;5093681;28;20047;-77
2022/05/05 04:21:45;;;;;;;15.80;10.10;;;;;;;;;;5093856;28;20452;-77
2022/05/05 04:24:11;;;;;;;18.58;10.70;;;;;;;;;;5093640;28;20071;-77
2022/05/05 04:26:38;;;;;;;17.30;9.73;;;;;;;;;;5093706;28;20088;-77
2022/05/05 04:29:04;;;;;;;14.88;9.82;;;;;;;;;;5093685;28;20047;-77
2022/05/05 04:31:31;;;;;;;15.30;10.27;;;;;;;;;;5092041;28;20036;-77
2022/05/05 04:33:58;;;;;;;15.25;9.35;;;;;;;;;;5090919;28;20047;-77
2022/05/05 04:36:24;;;;;;;16.60;9.40;;;;;;;;;;5091070;28;20043;-77
2022/05/05 04:38:50;;;;;;;16.38;10.85;;;;;;;;;;5090884;28;20043;-77
2022/05/05 04:41:16;;;;;;;16.92;9.35;;;;;;;;;;5092069;28;20048;-77
2022/05/05 04:43:42;;;;;;;17.52;10.85;;;;;;;;;;5093522;28;20407;-77
2022/05/05 04:46:09;;;;;;;16.67;10.07;;;;;;;;;;5093164;28;20039;-76
2022/05/05 04:48:35;;;;;;;16.88;9.55;;;;;;;;;;5093055;28;20081;-76
2022/05/05 04:51:02;;;;;;;16.77;10.20;;;;;;;;;;5093400;28;20380;-76
2022/05/05 04:53:28;;;;;;;15.88;10.25;;;;;;;;;;5073402;28;20032;-76
2022/05/05 04:55:54;;;;;;;18.40;10.40;;;;;;;;;;5080613;28;20543;-76
2022/05/05 04:58:20;;;;;;;16.05;10.05;;;;;;;;;;5093521;28;20074;-77
2022/05/05 05:00:46;;;;;;;15.15;10.05;;;;;;;;;;5093359;28;20069;-76
2022/05/05 05:03:32;;;;;;;14.60;9.55;;;;;;;;;;5093121;28;20036;-76
2022/05/05 05:05:58;;;;;;;14.57;9.75;;;;;;;;;;5083104;28;20228;-76
2022/05/05 05:08:24;;;;;;;17.05;9.50;;;;;;;;;;5110897;28;20082;-76
2022/05/05 05:10:50;;;;;;;16.70;8.95;;;;;;;;;;5096186;27;20081;-75
2022/05/05 05:13:17;;;;;;;15.82;9.65;;;;;;;;;;5099929;27;20405;-75
2022/05/05 05:15:43;;;;;;;23.45;11.02;;;;;;;;;;5102609;27;20047;-76
2022/05/05 05:18:09;;;;;;;14.90;9.80;;;;;;;;;;5100901;27;20131;-76
2022/05/05 05:20:35;;;;;;;18.48;11.43;;;;;;;;;;5105480;27;20043;-76
2022/05/05 05:23:01;;;;;;;17.20;10.45;;;;;;;;;;5096999;28;20127;-76
2022/05/05 05:25:28;;;;;;;14.77;10.68;;;;;;;;;;5094734;28;20320;-76
2022/05/05 05:27:54;;;;;;;17.17;10.75;;;;;;;;;;5094681;28;20032;-76
2022/05/05 05:30:20;;;;;;;16.48;11.15;;;;;;;;;;5094455;28;20431;-76
2022/05/05 05:32:46;;;;;;;18.75;11.10;;;;;;;;;;5094590;28;20040;-76
2022/05/05 05:35:13;;;;;;;16.73;10.18;;;;;;;;;;5090621;28;20048;-76
2022/05/05 05:37:39;;;;;;;15.93;10.82;;;;;;;;;;5091043;28;20126;-76
2022/05/05 05:40:05;;;;;;;14.20;9.98;;;;;;;;;;5074221;28;20511;-76
2022/05/05 05:42:31;;;;;;;18.85;11.82;;;;;;;;;;5090454;28;20044;-75
2022/05/05 05:44:58;;;;;;;17.83;11.23;;;;;;;;;;5090499;28;20078;-76
2022/05/05 05:47:24;;;;;;;19.48;10.70;;;;;;;;;;5090336;28;20032;-76
2022/05/05 05:49:50;;;;;;;19.55;11.05;;;;;;;;;;5090607;28;20395;-76
2022/05/05 05:52:16;;;;;;;15.40;10.45;;;;;;;;;;5073696;28;20092;-76
2022/05/05 05:54:42;;;;;;;15.82;10.60;;;;;;;;;;5090751;28;20455;-76
2022/05/05 05:57:08;;;;;;;15.23;10.15;;;;;;;;;;5090473;28;20055;-76
2022/05/05 05:59:35;;;;;;;17.48;11.38;;;;;;;;;;5090117;28;20067;-76
2022/05/05 06:04:45;;;;;;;18.92;11.45;;;;;;;;;;5090177;28;20048;-76
2022/05/05 06:07:12;;;;;;;15.90;11.02;;;;;;;;;;5091935;28;20127;-76
2022/05/05 06:09:38;;;;;;;16.92;10.40;;;;;;;;;;5087274;28;20068;-76
2022/05/05 06:12:04;;;;;;;14.13;9.57;;;;;;;;;;5091780;28;20082;-77
2022/05/05 06:14:31;;;;;;;15.48;9.40;;;;;;;;;;5075219;28;20147;-76
2022/05/05 06:17:09;;;;;;;14.48;9.85;;;;;;;;;;5086929;28;20130;-76
2022/05/05 06:19:36;;;;;;;13.88;10.02;;;;;;;;;;5090424;28;20066;-75
2022/05/05 06:22:03;;;;;;;17.15;9.52;;;;;;;;;;5078681;28;20395;-77
2022/05/05 06:24:29;;;;;;;15.68;10.05;;;;;;;;;;5089418;28;20471;-77
2022/05/05 06:26:56;;;;;;;17.33;10.70;;;;;;;;;;5089402;28;20044;-77
2022/05/05 06:29:23;;;;;;;15.52;10.52;;;;;;;;;;5089348;28;20043;-77
2022/05/05 06:31:50;;;;;;;15.55;9.98;;;;;;;;;;5089878;28;20487;-78
2022/05/05 06:34:17;;;;;;;17.38;10.48;;;;;;;;;;5089112;28;20158;-77
2022/05/05 06:36:43;;;;;;;17.50;10.20;;;;;;;;;;5072386;28;20044;-77
2022/05/05 06:39:09;;;;;;;15.80;10.77;;;;;;;;;;5089196;28;20050;-77
2022/05/05 06:41:35;;;;;;;15.95;10.73;;;;;;;;;;5089509;28;20055;-78
2022/05/05 06:44:02;;;;;;;17.05;9.60;;;;;;;;;;5089065;28;20044;-78
2022/05/05 06:46:29;;;;;;;15.90;10.50;;;;;;;;;;5072493;28;20036;-78
2022/05/05 06:48:56;;;;;;;18.70;9.95;;;;;;;;;;5072612;28;20502;-78
2022/05/05 06:51:22;;;;;;;13.95;9.55;;;;;;;;;;5072130;28;20039;-78
2022/05/05 06:53:48;;;;;;;16.35;10.80;;;;;;;;;;5072223;28;20450;-78
2022/05/05 06:56:14;;;;;;;14.48;10.75;;;;;;;;;;5089025;28;20048;-79
2022/05/05 06:58:40;;;;;;;16.80;10.20;;;;;;;;;;5072314;28;20040;-78
2022/05/05 07:05:23;;;;;;;14.98;9.85;;;;;;;;;;5088136;28;20043;-78
2022/05/05 07:06:37;;;;;;;14.73;9.55;;;;;;;;;;5086899;28;20044;-78
2022/05/05 07:11:48;;;;;;;16.05;10.40;;;;;;;;;;5081672;28;20090;-78
2022/05/05 07:14:15;;;;;;;14.85;9.20;;;;;;;;;;5088681;28;20449;-78
2022/05/05 07:16:41;;;;;;;14.90;9.98;;;;;;;;;;5071742;28;20068;-78
2022/05/05 07:19:09;;;;;;;16.33;9.50;;;;;;;;;;5087653;28;20452;-78
2022/05/05 07:21:37;;;;;;;15.40;9.18;;;;;;;;;;5088660;28;20522;-78
2022/05/05 07:24:04;;;;;;;15.18;9.60;;;;;;;;;;5092305;28;20040;-77
2022/05/05 07:26:30;;;;;;;18.50;9.93;;;;;;;;;;5096276;28;20067;-77
2022/05/05 07:28:57;;;;;;;15.35;9.90;;;;;;;;;;5088462;28;20035;-77
2022/05/05 07:31:23;;;;;;;16.13;9.02;;;;;;;;;;5094930;28;20281;-78
2022/05/05 07:33:49;;;;;;;14.98;8.95;;;;;;;;;;5071028;28;20056;-78
2022/05/05 07:36:15;;;;;;;18.15;9.82;;;;;;;;;;5088162;28;20099;-77
2022/05/05 07:38:41;;;;;;;14.85;8.52;;;;;;;;;;5088499;28;20047;-77
2022/05/05 07:41:22;;;;;;;16.88;8.55;;;;;;;;;;5071477;28;20082;-78
2022/05/05 07:43:50;;;;;;;16.13;8.70;;;;;;;;;;5071401;28;20075;-78
2022/05/05 07:46:19;;;;;;;14.48;8.30;;;;;;;;;;5071523;28;20043;-78
2022/05/05 07:48:46;;;;;;;16.08;8.80;;;;;;;;;;5077626;28;20027;-78
2022/05/05 07:51:28;;;;;;;14.10;8.02;;;;;;;;;;5086719;28;20040;-77
2022/05/05 07:56:39;;;;;;;;;;;;;;;;;;5074560;28;20044;-78
2022/05/05 07:59:05;;;;;;;12.43;6.97;;;;;;;;;;5071379;28;20146;-77
2022/05/05 08:01:31;;;;;;;10.90;6.65;;;;;;;;;;5071233;28;20044;-78
2022/05/05 08:03:58;;;;;;;11.93;7.65;;;;;;;;;;5070866;28;20166;-77
2022/05/05 08:06:24;;;;;;;15.45;7.47;;;;;;;;;;5087870;28;20036;-79
2022/05/05 08:08:50;;;;;;;14.20;6.78;;;;;;;;;;5087799;28;20093;-78
2022/05/05 08:11:16;;;;;;;11.88;6.80;;;;;;;;;;5087636;28;20036;-78
2022/05/05 08:13:42;;;;;;;12.13;7.25;;;;;;;;;;5071322;28;20044;-78
2022/05/05 08:16:08;;;;;;;13.77;7.03;;;;;;;;;;5087472;28;20055;-78
2022/05/05 08:18:38;;;;;;;13.18;6.38;;;;;;;;;;5087621;28;20046;-78
2022/05/05 08:21:04;;;;;;;9.88;6.03;;;;;;;;;;5087654;28;20040;-78
2022/05/05 08:23:30;;;;;;;11.52;6.03;;;;;;;;;;5070658;28;20036;-80
2022/05/05 08:28:45;;;;;;;11.38;5.30;;;;;;;;;;5087808;28;20039;-79
2022/05/05 08:31:12;;;;;;;13.60;6.30;;;;;;;;;;5070780;28;20391;-79
2022/05/05 08:33:38;;;;;;;12.20;5.88;;;;;;;;;;5089907;28;20046;-79
2022/05/05 08:36:05;;;;;;;8.88;5.15;;;;;;;;;;5091419;28;20518;-79
2022/05/05 08:38:31;;;;;;;15.23;5.90;;;;;;;;;;5090769;28;20513;-80
2022/05/05 08:40:58;;;;;;;9.40;5.55;;;;;;;;;;5073620;28;20040;-80
2022/05/05 08:43:24;;;;;;;13.90;6.22;;;;;;;;;;5073861;28;20598;-79
2022/05/05 08:45:50;;;;;;;9.98;5.95;;;;;;;;;;5073552;28;20114;-80
2022/05/05 08:48:17;;;;;;;12.45;5.65;;;;;;;;;;5090872;28;20040;-79
2022/05/05 08:50:44;;;;;;;14.75;5.50;;;;;;;;;;5073438;28;20047;-78
2022/05/05 08:53:14;;;;;;;11.65;5.10;;;;;;;;;;5074075;28;20046;-79
2022/05/05 08:55:41;;;;;;;13.45;5.22;;;;;;;;;;5073847;28;20118;-79
2022/05/05 08:58:07;;;;;;;12.95;5.60;;;;;;;;;;5073711;28;20042;-80
2022/05/05 09:00:33;;;;;;;12.27;5.88;;;;;;;;;;5073456;28;20056;-81
2022/05/05 09:03:00;;;;;;;12.07;5.72;;;;;;;;;;5090516;28;20093;-81
2022/05/05 09:05:45;;;;;;;9.82;5.22;;;;;;;;;;5090080;28;20115;-80
2022/05/05 09:08:14;;;;;;;10.73;4.70;;;;;;;;;;5090343;28;20537;-80
2022/05/05 09:10:44;;;;;;;10.55;5.30;;;;;;;;;;5090638;28;20405;-80
2022/05/05 09:13:11;;;;;;;9.63;5.70;;;;;;;;;;5090819;28;20071;-79
2022/05/05 09:15:37;;;;;;;9.57;5.40;;;;;;;;;;5073837;28;20108;-79
2022/05/05 09:18:14;;;;;;;10.65;5.78;;;;;;;;;;5090758;28;20036;-80
2022/05/05 09:20:40;;;;;;;9.00;5.07;;;;;;;;;;5090250;28;20291;-79
2022/05/05 09:23:07;;;;;;;9.70;5.15;;;;;;;;;;5090908;28;20048;-79
2022/05/05 09:25:45;;;;;;;11.10;5.95;;;;;;;;;;5073986;28;20035;-81
2022/05/05 09:28:21;;;;;;;10.63;5.93;;;;;;;;;;5073711;28;20036;-79
2022/05/05 09:30:49;;;;;;;12.52;6.10;;;;;;;;;;5108653;28;20514;-80
2022/05/05 09:33:17;;;;;;;11.15;6.45;;;;;;;;;;5094363;28;20099;-81
2022/05/05 09:35:43;;;;;;;11.88;6.45;;;;;;;;;;5098608;28;20064;-81
2022/05/05 09:38:10;;;;;;;10.88;6.05;;;;;;;;;;5090522;28;20048;-83
2022/05/05 09:40:36;;;;;;;14.82;6.95;;;;;;;;;;5109495;28;20043;-80
2022/05/05 09:43:02;;;;;;;12.20;6.25;;;;;;;;;;5102582;28;20048;-79
2022/05/05 09:45:32;;;;;;;17.90;7.15;;;;;;;;;;5090371;28;20116;-79
2022/05/05 09:48:03;;;;;;;11.20;5.50;;;;;;;;;;5090581;28;20124;-79
2022/05/05 09:50:30;;;;;;;13.63;6.13;;;;;;;;;;5074772;28;20498;-79
2022/05/05 09:58:57;;;;;;;13.57;6.43;;;;;;;;;;5107815;28;20077;-80
2022/05/05 10:01:31;;;;;;;13.57;5.88;;;;;;;;;;5076868;28;20043;-82
2022/05/05 10:04:05;;;;;;;10.85;5.97;;;;;;;;;;5094042;28;20047;-82
2022/05/05 10:06:31;;;;;;;9.25;4.75;;;;;;;;;;5093540;28;20075;-81
2022/05/05 10:09:01;;;;;;;11.65;5.65;;;;;;;;;;5094110;28;20498;-81
2022/05/05 10:11:27;;;;;;;10.48;5.88;;;;;;;;;;5093708;28;20071;-84
2022/05/05 10:13:56;;;;;;;11.85;6.45;;;;;;;;;;5094467;28;20786;-80
2022/05/05 10:16:23;;;;;;;10.18;6.57;;;;;;;;;;5075634;28;20031;-80
2022/05/05 10:18:51;;;;;;;11.20;6.55;;;;;;;;;;5077378;28;20513;-79
2022/05/05 10:21:30;;;;;;;11.93;6.18;;;;;;;;;;5076632;28;20032;-80
2022/05/05 10:24:05;;;;;;;11.20;5.65;;;;;;;;;;5086381;28;20050;-81
2022/05/05 10:26:32;;;;;;;9.68;6.05;;;;;;;;;;5094252;28;20093;-84
2022/05/05 10:28:58;;;;;;;9.20;5.80;;;;;;;;;;5076111;28;20055;-82
2022/05/05 10:31:30;;;;;;;10.00;5.68;;;;;;;;;;5075685;28;20080;-80
2022/05/05 10:34:16;;;;;;;9.15;5.40;;;;;;;;;;5070999;28;20055;-81
2022/05/05 10:36:57;;;;;;;9.23;4.93;;;;;;;;;;5080455;28;20047;-81
2022/05/05 10:39:23;;;;;;;11.52;5.05;;;;;;;;;;5077277;28;20043;-81
2022/05/05 10:41:53;;;;;;;9.32;4.45;;;;;;;;;;5092582;28;20036;-81
2022/05/05 10:44:23;;;;;;;12.02;5.72;;;;;;;;;;5076367;28;20044;-83
2022/05/05 10:46:52;;;;;;;11.38;5.65;;;;;;;;;;5076120;28;20043;-81
2022/05/05 10:49:34;;;;;;;9.57;5.07;;;;;;;;;;5075785;28;20043;-82
2022/05/05 10:52:10;;;;;;;9.10;4.80;;;;;;;;;;5076090;28;20027;-82
2022/05/05 10:54:37;;;;;;;11.38;5.18;;;;;;;;;;5075933;28;20044;-81
2022/05/05 10:57:22;;;;;;;8.98;4.93;;;;;;;;;;5074598;28;20127;-80
2022/05/05 10:59:48;;;;;;;;;;;;;;;;;;5123146;27;20044;-82
2022/05/05 11:02:23;;;;;;;8.30;4.95;;;;;;;;;;5091624;28;19930;-82
2022/05/05 11:04:49;;;;;;;8.85;5.10;;;;;;;;;;5074345;28;20047;-81
2022/05/05 11:07:25;;;;;;;6.97;4.28;;;;;;;;;;5091634;28;20528;-83
2022/05/05 11:09:51;;;;;;;10.55;4.57;;;;;;;;;;5088265;28;20221;-81
2022/05/05 11:12:18;;;;;;;8.80;5.20;;;;;;;;;;5074309;28;20032;-81
2022/05/05 11:23:19;;;;;;;10.63;5.03;;;;;;;;;;5092518;28;20290;-81
2022/05/05 11:25:45;;;;;;;10.20;5.43;;;;;;;;;;5075653;28;20039;-80
2022/05/05 11:28:14;;;;;;;8.35;4.60;;;;;;;;;;5092051;28;20039;-81
2022/05/05 11:30:44;;;;;;;8.85;4.80;;;;;;;;;;5091323;28;20123;-83
2022/05/05 11:33:11;;;;;;;10.05;5.72;;;;;;;;;;5075146;28;20442;-83
2022/05/05 11:35:37;;;;;;;11.45;5.57;;;;;;;;;;5091593;28;20172;-81
2022/05/05 11:38:03;;;;;;;10.30;4.95;;;;;;;;;;5075161;28;20473;-82
2022/05/05 11:40:36;;;;;;;9.55;5.88;;;;;;;;;;5091607;28;20428;-82
2022/05/05 11:45:54;;;;;;;8.57;5.35;;;;;;;;;;5091465;28;20044;-83
2022/05/05 11:48:21;;;;;;;11.90;6.82;;;;;;;;;;5092153;28;20498;-82
2022/05/05 11:50:47;;;;;;;12.02;6.53;;;;;;;;;;5074603;28;20031;-80
2022/05/05 11:53:20;;;;;;;10.07;6.57;;;;;;;;;;5091392;28;20040;-81
2022/05/05 11:55:48;;;;;;;11.45;7.40;;;;;;;;;;5091782;28;20097;-83
2022/05/05 11:58:16;;;;;;;10.10;6.85;;;;;;;;;;5075219;28;20052;-81
2022/05/05 12:03:27;;;;;;;11.85;7.13;;;;;;;;;;5093174;28;20530;-85
2022/05/05 12:05:53;;;;;;;10.82;7.03;;;;;;;;;;5092863;28;20102;-84
2022/05/05 12:08:20;;;;;;;11.73;7.88;;;;;;;;;;5074704;28;20039;-82
2022/05/05 12:10:46;;;;;;;10.95;7.45;;;;;;;;;;5091596;28;20078;-82
2022/05/05 12:13:12;;;;;;;13.10;7.15;;;;;;;;;;5091802;28;20042;-83
2022/05/05 12:15:39;;;;;;;11.88;7.60;;;;;;;;;;5074908;28;20039;-83
2022/05/05 12:18:14;;;;;;;11.98;7.03;;;;;;;;;;5091320;28;20126;-83
2022/05/05 12:20:48;;;;;;;11.50;7.28;;;;;;;;;;5074429;28;20074;-85
2022/05/05 12:23:14;;;;;;;15.45;7.25;;;;;;;;;;5074379;28;20531;-81
2022/05/05 12:25:45;;;;;;;13.68;7.97;;;;;;;;;;5090967;28;20044;-83
2022/05/05 12:28:12;;;;;;;11.45;8.27;;;;;;;;;;5075657;28;20036;-84
2022/05/05 12:30:52;;;;;;;12.18;8.40;;;;;;;;;;5093454;28;20043;-83
2022/05/05 12:33:18;;;;;;;12.88;8.10;;;;;;;;;;5074609;28;20047;-82
2022/05/05 12:35:45;;;;;;;12.40;8.05;;;;;;;;;;5074069;28;20048;-82
2022/05/05 12:38:13;;;;;;;17.88;8.10;;;;;;;;;;5091600;28;20039;-86
2022/05/05 12:44:14;;;;;;;14.00;9.32;;;;;;;;;;5112466;28;20082;-86
2022/05/05 13:00:21;;;;;;;14.05;8.23;;;;;;;;;;5048484;28;20408;-88
2022/05/05 13:02:48;;;;;;;12.20;8.40;;;;;;;;;;5012422;28;20675;-83
2022/05/05 13:05:44;;;;;;;13.30;8.10;;;;;;;;;;5064906;28;20090;-86
2022/05/05 13:12:00;;;;;;;12.52;8.32;;;;;;;;;;5049373;28;20043;-86
2022/05/05 13:14:28;;;;;;;11.55;8.18;;;;;;;;;;5064984;28;20059;-83
2022/05/05 13:17:05;;;;;;;10.75;7.70;;;;;;;;;;5032343;28;20052;-86
2022/05/05 13:19:36;;;;;;;13.88;7.95;;;;;;;;;;5047626;28;20199;-84
2022/05/05 13:22:24;;;;;;;;;;;;;;;;;;5025111;28;20046;-87
2022/05/05 13:25:05;;;;;;;11.70;7.38;;;;;;;;;;4991186;28;19929;-87
2022/05/05 13:27:31;;;;;;;12.82;7.25;;;;;;;;;;5006413;28;20050;-83
2022/05/05 13:29:58;;;;;;;12.75;7.90;;;;;;;;;;5003171;28;20121;-83
2022/05/05 13:32:35;;;;;;;12.48;7.82;;;;;;;;;;4996510;28;20042;-85
2022/05/05 13:35:03;;;;;;;11.63;7.47;;;;;;;;;;4979538;28;20437;-85
2022/05/05 13:37:29;;;;;;;11.52;6.90;;;;;;;;;;5028087;28;20054;-84
2022/05/05 13:39:55;;;;;;;12.38;6.90;;;;;;;;;;5028961;28;20042;-83
2022/05/05 13:42:21;;;;;;;14.05;6.85;;;;;;;;;;5028107;28;20413;-82
2022/05/05 13:44:49;;;;;;;14.68;7.00;;;;;;;;;;4994608;28;20476;-85
2022/05/05 13:47:18;;;;;;;12.05;6.82;;;;;;;;;;5042568;28;20131;-86
2022/05/05 13:49:44;;;;;;;10.73;6.68;;;;;;;;;;5037162;28;20041;-84
2022/05/05 14:06:05;;;;;;;10.90;7.05;;;;;;;;;;5105201;28;20548;-89
2022/05/05 14:14:29;;;;;;;12.55;6.72;;;;;;;;;;5108499;28;20088;-87
2022/05/05 14:16:55;;;;;;;9.30;6.00;;;;;;;;;;5078361;28;20042;-84
2022/05/05 14:26:16;;;;;;;9.63;6.45;;;;;;;;;;5063800;28;20044;-85
2022/05/05 14:29:03;;;;;;;9.32;5.93;;;;;;;;;;5075170;28;20043;-84
2022/05/05 14:31:30;;;;;;;9.82;6.07;;;;;;;;;;5103474;28;20459;-85
2022/05/05 14:34:00;;;;;;;8.88;5.70;;;;;;;;;;5091423;28;20415;-85
2022/05/05 14:36:40;;;;;;;10.93;7.32;;;;;;;;;;5111759;28;20092;-86
2022/05/05 14:39:52;;;;;;;10.70;6.32;;;;;;;;;;5117448;28;20033;-87
2022/05/05 14:42:43;;;;;;;9.30;6.60;;;;;;;;;;5080178;28;20514;-88
2022/05/05 14:45:24;;;;;;;10.77;6.15;;;;;;;;;;5093079;28;20050;-84
2022/05/05 14:47:53;;;;;;;10.88;5.78;;;;;;;;;;5098535;28;20049;-87
2022/05/05 14:50:20;;;;;;;10.43;6.88;;;;;;;;;;5079061;28;20039;-85
2022/05/05 14:53:02;;;;;;;9.75;6.65;;;;;;;;;;5089648;28;20567;-88
2022/05/05 14:55:28;;;;;;;10.52;5.80;;;;;;;;;;5078791;28;20041;-85
2022/05/05 14:57:57;;;;;;;10.73;6.45;;;;;;;;;;5084535;28;20034;-85
2022/05/05 15:00:27;;;;;;;10.77;6.72;;;;;;;;;;5095629;28;20043;-83
2022/05/05 15:03:24;;;;;;;11.88;6.55;;;;;;;;;;5073105;28;20044;-87
2022/05/05 15:05:50;;;;;;;8.90;6.15;;;;;;;;;;5079606;28;20112;-82
2022/05/05 15:08:17;;;;;;;8.82;5.93;;;;;;;;;;5075296;28;20040;-82
2022/05/05 15:10:43;;;;;;;10.23;5.85;;;;;;;;;;5075335;28;20047;-82
2022/05/05 15:13:10;;;;;;;10.45;5.75;;;;;;;;;;5066387;28;20073;-82
2022/05/05 15:15:36;;;;;;;11.52;5.68;;;;;;;;;;5086409;27;20039;-83
2022/05/05 15:18:05;;;;;;;10.10;6.15;;;;;;;;;;5077605;28;20061;-83
2022/05/05 15:20:31;;;;;;;15.98;6.78;;;;;;;;;;5078460;27;20104;-81
2022/05/05 15:22:57;;;;;;;17.80;7.07;;;;;;;;;;5091969;28;20182;-81
2022/05/05 15:25:24;;;;;;;11.35;6.95;;;;;;;;;;5075715;28;20398;-84
2022/05/05 15:27:51;;;;;;;12.27;6.70;;;;;;;;;;5075055;28;20042;-82
2022/05/05 15:30:17;;;;;;;10.07;6.78;;;;;;;;;;5075469;28;20096;-82
2022/05/05 15:32:43;;;;;;;12.38;6.97;;;;;;;;;;5096632;27;20078;-81
2022/05/05 15:35:13;;;;;;;12.25;7.07;;;;;;;;;;5083265;28;20060;-83
2022/05/05 15:37:40;;;;;;;12.18;7.97;;;;;;;;;;5089553;28;20403;-81
2022/05/05 15:40:07;;;;;;;11.13;7.88;;;;;;;;;;5088231;28;20065;-81
2022/05/05 15:42:33;;;;;;;12.88;7.82;;;;;;;;;;5072213;28;20044;-81
2022/05/05 15:45:00;;;;;;;11.18;7.00;;;;;;;;;;5091486;28;20039;-82
2022/05/05 15:47:27;;;;;;;11.57;7.90;;;;;;;;;;5092548;28;20051;-82
2022/05/05 15:49:53;;;;;;;13.05;8.20;;;;;;;;;;5075014;28;20395;-81
2022/05/05 15:52:20;;;;;;;11.35;7.35;;;;;;;;;;5088219;28;20398;-81
2022/05/05 15:54:47;;;;;;;10.60;7.10;;;;;;;;;;5087919;28;20495;-83
2022/05/05 15:57:17;;;;;;;13.35;7.57;;;;;;;;;;5102469;28;20061;-82
2022/05/05 15:59:44;;;;;;;11.13;6.50;;;;;;;;;;5074663;28;20100;-82
2022/05/05 16:02:12;;;;;;;10.93;6.95;;;;;;;;;;5078318;28;20479;-82
2022/05/05 16:04:39;;;;;;;11.77;7.18;;;;;;;;;;5091543;28;20335;-82
2022/05/05 16:07:06;;;;;;;12.10;7.45;;;;;;;;;;5091763;28;20045;-81
2022/05/05 16:09:32;;;;;;;10.40;7.18;;;;;;;;;;5091729;28;20038;-83
2022/05/05 16:12:00;;;;;;;11.65;7.45;;;;;;;;;;5074550;28;20084;-82
2022/05/05 16:14:28;;;;;;;12.10;8.13;;;;;;;;;;5074452;28;20035;-83